sensor_id;sensor_type;location;lat;lon;timestamp;temperature;humidity
11152;DHT22;5630;49.342;10.802;2023-01-01T00:00:58;11.70;99.90
11152;DHT22;5630;49.342;10.802;2023-01-01T00:03:24;11.70;99.90
11152;DHT22;5630;49.342;10.802;2023-01-01T00:05:49;11.70;99.90
11152;DHT22;5630;49.342;10.802;2023-01-01T00:08:15;11.70;99.90
11152;DHT22;5630;49.342;10.802;2023-01-01T00:10:40;11.80;99.90
11152;DHT22;5630;49.342;10.802;2023-01-01T00:13:06;11.70;99.90
11152;DHT22;5630;49.342;10.802;2023-01-01T00:15:32;11.70;99.90
11152;DHT22;5630;49.342;10.802;2023-01-01T00:17:57;11.80;99.90
11152;DHT22;5630;49.342;10.802;2023-01-01T00:20:23;11.80;99.90
11152;DHT22;5630;49.342;10.802;2023-01-01T00:22:49;11.70;99.90
11152;DHT22;5630;49.342;10.802;2023-01-01T00:25:15;11.80;99.90
11152;DHT22;5630;49.342;10.802;2023-01-01T00:27:42;11.80;99.90
11152;DHT22;5630;49.342;10.802;2023-01-01T00:30:09;11.80;99.90
11152;DHT22;5630;49.342;10.802;2023-01-01T00:32:35;11.70;99.90
11152;DHT22;5630;49.342;10.802;2023-01-01T00:35:00;11.70;99.90
11152;DHT22;5630;49.342;10.802;2023-01-01T00:37:27;11.70;99.90
11152;DHT22;5630;49.342;10.802;2023-01-01T00:39:52;11.70;99.90
11152;DHT22;5630;49.342;10.802;2023-01-01T00:42:18;11.70;99.90
11152;DHT22;5630;49.342;10.802;2023-01-01T00:44:43;11.70;99.90
11152;DHT22;5630;49.342;10.802;2023-01-01T00:47:09;11.60;99.90
11152;DHT22;5630;49.342;10.802;2023-01-01T00:49:35;11.60;99.90
11152;DHT22;5630;49.342;10.802;2023-01-01T00:52:00;11.60;99.90
11152;DHT22;5630;49.342;10.802;2023-01-01T00:54:26;11.60;99.90
11152;DHT22;5630;49.342;10.802;2023-01-01T00:56:51;11.60;99.90
11152;DHT22;5630;49.342;10.802;2023-01-01T00:59:17;11.60;99.90
11152;DHT22;5630;49.342;10.802;2023-01-01T01:01:42;11.60;99.90
11152;DHT22;5630;49.342;10.802;2023-01-01T01:04:08;11.50;99.90
11152;DHT22;5630;49.342;10.802;2023-01-01T01:06:34;11.60;99.90
11152;DHT22;5630;49.342;10.802;2023-01-01T01:09:00;11.60;99.90
11152;DHT22;5630;49.342;10.802;2023-01-01T01:11:25;11.50;99.90
11152;DHT22;5630;49.342;10.802;2023-01-01T01:13:53;11.50;99.90
11152;DHT22;5630;49.342;10.802;2023-01-01T01:18:45;11.50;99.90
11152;DHT22;5630;49.342;10.802;2023-01-01T01:21:15;11.50;99.90
11152;DHT22;5630;49.342;10.802;2023-01-01T01:23:41;11.50;99.90
11152;DHT22;5630;49.342;10.802;2023-01-01T01:28:33;11.50;99.90
11152;DHT22;5630;49.342;10.802;2023-01-01T01:30:59;11.50;99.90
11152;DHT22;5630;49.342;10.802;2023-01-01T01:33:25;11.50;99.90
11152;DHT22;5630;49.342;10.802;2023-01-01T01:35:50;11.50;99.90
11152;DHT22;5630;49.342;10.802;2023-01-01T01:38:16;11.60;99.90
11152;DHT22;5630;49.342;10.802;2023-01-01T01:40:42;11.60;99.90
11152;DHT22;5630;49.342;10.802;2023-01-01T01:46:02;11.70;99.90
11152;DHT22;5630;49.342;10.802;2023-01-01T01:48:36;11.70;99.90
11152;DHT22;5630;49.342;10.802;2023-01-01T01:51:03;11.70;99.90
11152;DHT22;5630;49.342;10.802;2023-01-01T01:53:32;11.70;99.90
11152;DHT22;5630;49.342;10.802;2023-01-01T01:56:02;11.60;99.90
11152;DHT22;5630;49.342;10.802;2023-01-01T01:58:29;11.60;99.90
11152;DHT22;5630;49.342;10.802;2023-01-01T02:00:55;11.70;99.90
11152;DHT22;5630;49.342;10.802;2023-01-01T02:04:00;11.60;99.90
11152;DHT22;5630;49.342;10.802;2023-01-01T02:06:27;11.70;99.90
11152;DHT22;5630;49.342;10.802;2023-01-01T02:08:55;11.70;99.90
11152;DHT22;5630;49.342;10.802;2023-01-01T02:11:21;11.70;99.90
11152;DHT22;5630;49.342;10.802;2023-01-01T02:13:47;11.70;99.90
11152;DHT22;5630;49.342;10.802;2023-01-01T02:16:22;11.70;99.90
11152;DHT22;5630;49.342;10.802;2023-01-01T02:18:59;11.70;99.90
11152;DHT22;5630;49.342;10.802;2023-01-01T02:21:29;11.70;99.90
11152;DHT22;5630;49.342;10.802;2023-01-01T02:26:58;11.70;99.90
11152;DHT22;5630;49.342;10.802;2023-01-01T02:29:46;11.80;99.90
11152;DHT22;5630;49.342;10.802;2023-01-01T02:32:23;11.80;99.90
11152;DHT22;5630;49.342;10.802;2023-01-01T02:35:09;11.70;99.90
11152;DHT22;5630;49.342;10.802;2023-01-01T02:37:59;11.70;99.90
11152;DHT22;5630;49.342;10.802;2023-01-01T02:40:26;11.70;99.90
11152;DHT22;5630;49.342;10.802;2023-01-01T02:42:52;11.60;99.90
11152;DHT22;5630;49.342;10.802;2023-01-01T02:45:20;11.60;99.90
11152;DHT22;5630;49.342;10.802;2023-01-01T02:47:45;11.60;99.90
11152;DHT22;5630;49.342;10.802;2023-01-01T02:50:18;11.60;99.90
11152;DHT22;5630;49.342;10.802;2023-01-01T02:58:26;11.50;99.90
11152;DHT22;5630;49.342;10.802;2023-01-01T03:01:28;11.40;99.90
11152;DHT22;5630;49.342;10.802;2023-01-01T03:06:39;11.30;99.90
11152;DHT22;5630;49.342;10.802;2023-01-01T03:17:34;11.30;99.90
11152;DHT22;5630;49.342;10.802;2023-01-01T03:20:04;11.30;99.90
11152;DHT22;5630;49.342;10.802;2023-01-01T03:22:33;11.20;99.90
11152;DHT22;5630;49.342;10.802;2023-01-01T03:25:07;11.20;99.90
11152;DHT22;5630;49.342;10.802;2023-01-01T03:27:38;11.20;99.90
11152;DHT22;5630;49.342;10.802;2023-01-01T03:30:08;11.10;99.90
11152;DHT22;5630;49.342;10.802;2023-01-01T03:32:38;11.20;99.90
11152;DHT22;5630;49.342;10.802;2023-01-01T03:35:33;11.10;99.90
11152;DHT22;5630;49.342;10.802;2023-01-01T03:38:01;11.10;99.90
11152;DHT22;5630;49.342;10.802;2023-01-01T03:40:30;11.10;99.90
11152;DHT22;5630;49.342;10.802;2023-01-01T03:43:12;11.10;99.90
11152;DHT22;5630;49.342;10.802;2023-01-01T03:45:42;11.10;99.90
11152;DHT22;5630;49.342;10.802;2023-01-01T03:48:10;11.10;99.90
11152;DHT22;5630;49.342;10.802;2023-01-01T03:50:46;11.10;99.90
11152;DHT22;5630;49.342;10.802;2023-01-01T03:58:40;11.20;99.90
11152;DHT22;5630;49.342;10.802;2023-01-01T04:01:26;11.20;99.90
11152;DHT22;5630;49.342;10.802;2023-01-01T04:03:55;11.20;99.90
11152;DHT22;5630;49.342;10.802;2023-01-01T04:06:21;11.10;99.90
11152;DHT22;5630;49.342;10.802;2023-01-01T04:08:48;11.10;99.90
11152;DHT22;5630;49.342;10.802;2023-01-01T04:11:18;11.10;99.90
11152;DHT22;5630;49.342;10.802;2023-01-01T04:14:04;11.00;99.90
11152;DHT22;5630;49.342;10.802;2023-01-01T04:16:29;11.00;99.90
11152;DHT22;5630;49.342;10.802;2023-01-01T04:18:55;11.00;99.90
11152;DHT22;5630;49.342;10.802;2023-01-01T04:21:20;11.00;99.90
11152;DHT22;5630;49.342;10.802;2023-01-01T04:23:46;11.00;99.90
11152;DHT22;5630;49.342;10.802;2023-01-01T04:26:12;10.90;99.90
11152;DHT22;5630;49.342;10.802;2023-01-01T04:31:05;10.90;99.90
11152;DHT22;5630;49.342;10.802;2023-01-01T04:33:30;10.80;99.90
11152;DHT22;5630;49.342;10.802;2023-01-01T04:36:10;10.80;99.90
11152;DHT22;5630;49.342;10.802;2023-01-01T04:38:36;10.70;99.90
11152;DHT22;5630;49.342;10.802;2023-01-01T04:41:02;10.70;99.90
11152;DHT22;5630;49.342;10.802;2023-01-01T04:43:29;10.70;99.90
11152;DHT22;5630;49.342;10.802;2023-01-01T04:45:57;10.60;99.90
11152;DHT22;5630;49.342;10.802;2023-01-01T04:48:23;10.60;99.90
11152;DHT22;5630;49.342;10.802;2023-01-01T04:51:00;10.60;99.90
11152;DHT22;5630;49.342;10.802;2023-01-01T04:53:28;10.50;99.90
11152;DHT22;5630;49.342;10.802;2023-01-01T04:55:54;10.50;99.90
11152;DHT22;5630;49.342;10.802;2023-01-01T04:58:20;10.50;99.90
11152;DHT22;5630;49.342;10.802;2023-01-01T05:00:49;10.50;99.90
11152;DHT22;5630;49.342;10.802;2023-01-01T05:03:16;10.40;99.90
11152;DHT22;5630;49.342;10.802;2023-01-01T05:05:43;10.40;99.90
11152;DHT22;5630;49.342;10.802;2023-01-01T05:08:08;10.40;99.90
11152;DHT22;5630;49.342;10.802;2023-01-01T05:10:34;10.40;99.90
11152;DHT22;5630;49.342;10.802;2023-01-01T05:12:59;10.30;99.90
11152;DHT22;5630;49.342;10.802;2023-01-01T05:15:25;10.30;99.90
11152;DHT22;5630;49.342;10.802;2023-01-01T05:17:51;10.30;99.90
11152;DHT22;5630;49.342;10.802;2023-01-01T05:20:18;10.30;99.90
11152;DHT22;5630;49.342;10.802;2023-01-01T05:22:45;10.30;99.90
11152;DHT22;5630;49.342;10.802;2023-01-01T05:25:11;10.30;99.90
11152;DHT22;5630;49.342;10.802;2023-01-01T05:27:36;10.30;99.90
11152;DHT22;5630;49.342;10.802;2023-01-01T05:30:02;10.40;99.90
11152;DHT22;5630;49.342;10.802;2023-01-01T05:32:28;10.50;99.90
11152;DHT22;5630;49.342;10.802;2023-01-01T05:34:54;10.40;99.90
11152;DHT22;5630;49.342;10.802;2023-01-01T05:37:20;10.40;99.90
11152;DHT22;5630;49.342;10.802;2023-01-01T05:39:46;10.50;99.90
11152;DHT22;5630;49.342;10.802;2023-01-01T05:42:12;10.50;99.90
11152;DHT22;5630;49.342;10.802;2023-01-01T05:44:39;10.50;99.90
11152;DHT22;5630;49.342;10.802;2023-01-01T05:47:05;10.50;99.90
11152;DHT22;5630;49.342;10.802;2023-01-01T05:49:31;10.50;99.90
11152;DHT22;5630;49.342;10.802;2023-01-01T05:51:56;10.50;99.90
11152;DHT22;5630;49.342;10.802;2023-01-01T05:54:22;10.50;99.90
11152;DHT22;5630;49.342;10.802;2023-01-01T05:56:47;10.50;99.90
11152;DHT22;5630;49.342;10.802;2023-01-01T05:59:13;10.50;99.90
11152;DHT22;5630;49.342;10.802;2023-01-01T06:01:38;10.50;99.90
11152;DHT22;5630;49.342;10.802;2023-01-01T06:04:04;10.50;99.90
11152;DHT22;5630;49.342;10.802;2023-01-01T06:06:31;10.50;99.90
11152;DHT22;5630;49.342;10.802;2023-01-01T06:09:00;10.50;99.90
11152;DHT22;5630;49.342;10.802;2023-01-01T06:11:26;10.50;99.90
11152;DHT22;5630;49.342;10.802;2023-01-01T06:13:56;10.40;99.90
11152;DHT22;5630;49.342;10.802;2023-01-01T06:16:23;10.40;99.90
11152;DHT22;5630;49.342;10.802;2023-01-01T06:18:49;10.40;99.90
11152;DHT22;5630;49.342;10.802;2023-01-01T06:21:16;10.40;99.90
11152;DHT22;5630;49.342;10.802;2023-01-01T06:23:43;10.30;99.90
11152;DHT22;5630;49.342;10.802;2023-01-01T06:26:11;10.30;99.90
11152;DHT22;5630;49.342;10.802;2023-01-01T06:28:37;10.30;99.90
11152;DHT22;5630;49.342;10.802;2023-01-01T06:31:05;10.30;99.90
11152;DHT22;5630;49.342;10.802;2023-01-01T06:33:32;10.30;99.90
11152;DHT22;5630;49.342;10.802;2023-01-01T06:35:58;10.30;99.90
11152;DHT22;5630;49.342;10.802;2023-01-01T06:38:23;10.30;99.90
11152;DHT22;5630;49.342;10.802;2023-01-01T06:41:00;10.20;99.90
11152;DHT22;5630;49.342;10.802;2023-01-01T06:43:28;10.20;99.90
11152;DHT22;5630;49.342;10.802;2023-01-01T06:46:02;10.20;99.90
11152;DHT22;5630;49.342;10.802;2023-01-01T06:48:33;10.20;99.90
11152;DHT22;5630;49.342;10.802;2023-01-01T06:51:05;10.20;99.90
11152;DHT22;5630;49.342;10.802;2023-01-01T06:53:31;10.20;99.90
11152;DHT22;5630;49.342;10.802;2023-01-01T06:55:56;10.20;99.90
11152;DHT22;5630;49.342;10.802;2023-01-01T06:58:22;10.20;99.90
11152;DHT22;5630;49.342;10.802;2023-01-01T07:00:48;10.20;99.90
11152;DHT22;5630;49.342;10.802;2023-01-01T07:03:13;10.20;99.90
11152;DHT22;5630;49.342;10.802;2023-01-01T07:05:39;10.20;99.90
11152;DHT22;5630;49.342;10.802;2023-01-01T07:08:04;10.30;99.90
11152;DHT22;5630;49.342;10.802;2023-01-01T07:10:30;10.30;99.90
11152;DHT22;5630;49.342;10.802;2023-01-01T07:12:55;10.20;99.90
11152;DHT22;5630;49.342;10.802;2023-01-01T07:15:21;10.20;99.90
11152;DHT22;5630;49.342;10.802;2023-01-01T07:17:46;10.30;99.90
11152;DHT22;5630;49.342;10.802;2023-01-01T07:20:12;10.20;99.90
11152;DHT22;5630;49.342;10.802;2023-01-01T07:22:38;10.20;99.90
11152;DHT22;5630;49.342;10.802;2023-01-01T07:25:05;10.20;99.90
11152;DHT22;5630;49.342;10.802;2023-01-01T07:27:30;10.20;99.90
11152;DHT22;5630;49.342;10.802;2023-01-01T07:29:56;10.30;99.90
11152;DHT22;5630;49.342;10.802;2023-01-01T07:32:21;10.30;99.90
11152;DHT22;5630;49.342;10.802;2023-01-01T07:34:47;10.30;99.90
11152;DHT22;5630;49.342;10.802;2023-01-01T07:37:12;10.30;99.90
11152;DHT22;5630;49.342;10.802;2023-01-01T07:39:38;10.30;99.90
11152;DHT22;5630;49.342;10.802;2023-01-01T07:42:03;10.30;99.90
11152;DHT22;5630;49.342;10.802;2023-01-01T07:44:29;10.30;99.90
11152;DHT22;5630;49.342;10.802;2023-01-01T07:47:05;10.30;99.90
11152;DHT22;5630;49.342;10.802;2023-01-01T07:49:37;10.30;99.90
11152;DHT22;5630;49.342;10.802;2023-01-01T07:52:03;10.40;99.90
11152;DHT22;5630;49.342;10.802;2023-01-01T07:54:29;10.40;99.90
11152;DHT22;5630;49.342;10.802;2023-01-01T07:56:54;10.40;99.90
11152;DHT22;5630;49.342;10.802;2023-01-01T07:59:20;10.50;99.90
11152;DHT22;5630;49.342;10.802;2023-01-01T08:01:45;10.50;99.90
11152;DHT22;5630;49.342;10.802;2023-01-01T08:04:11;10.50;99.90
11152;DHT22;5630;49.342;10.802;2023-01-01T08:06:36;10.50;99.90
11152;DHT22;5630;49.342;10.802;2023-01-01T08:09:02;10.60;99.90
11152;DHT22;5630;49.342;10.802;2023-01-01T08:11:28;10.70;99.90
11152;DHT22;5630;49.342;10.802;2023-01-01T08:13:53;10.70;99.90
11152;DHT22;5630;49.342;10.802;2023-01-01T08:16:19;10.80;99.90
11152;DHT22;5630;49.342;10.802;2023-01-01T08:18:45;10.90;99.90
11152;DHT22;5630;49.342;10.802;2023-01-01T08:21:11;10.90;99.90
11152;DHT22;5630;49.342;10.802;2023-01-01T08:23:36;11.00;99.90
11152;DHT22;5630;49.342;10.802;2023-01-01T08:26:02;11.10;99.90
11152;DHT22;5630;49.342;10.802;2023-01-01T08:28:29;11.20;99.90
11152;DHT22;5630;49.342;10.802;2023-01-01T08:30:55;11.20;99.90
11152;DHT22;5630;49.342;10.802;2023-01-01T08:33:20;11.30;99.90
11152;DHT22;5630;49.342;10.802;2023-01-01T08:35:47;11.30;99.90
11152;DHT22;5630;49.342;10.802;2023-01-01T08:38:13;11.40;99.90
11152;DHT22;5630;49.342;10.802;2023-01-01T08:40:39;11.40;99.90
11152;DHT22;5630;49.342;10.802;2023-01-01T08:43:04;11.40;99.90
11152;DHT22;5630;49.342;10.802;2023-01-01T08:45:30;11.50;99.90
11152;DHT22;5630;49.342;10.802;2023-01-01T08:47:55;11.50;99.90
11152;DHT22;5630;49.342;10.802;2023-01-01T08:50:21;11.50;99.90
11152;DHT22;5630;49.342;10.802;2023-01-01T08:52:47;11.50;99.90
11152;DHT22;5630;49.342;10.802;2023-01-01T08:55:12;11.50;99.90
11152;DHT22;5630;49.342;10.802;2023-01-01T08:57:38;11.50;99.90
11152;DHT22;5630;49.342;10.802;2023-01-01T09:00:04;11.50;99.90
11152;DHT22;5630;49.342;10.802;2023-01-01T09:02:30;11.50;99.90
11152;DHT22;5630;49.342;10.802;2023-01-01T09:04:55;11.50;99.90
11152;DHT22;5630;49.342;10.802;2023-01-01T09:07:21;11.50;99.90
11152;DHT22;5630;49.342;10.802;2023-01-01T09:09:47;11.50;99.90
11152;DHT22;5630;49.342;10.802;2023-01-01T09:12:15;11.40;99.90
11152;DHT22;5630;49.342;10.802;2023-01-01T09:14:41;11.40;99.90
11152;DHT22;5630;49.342;10.802;2023-01-01T09:17:06;11.50;99.90
11152;DHT22;5630;49.342;10.802;2023-01-01T09:19:32;11.40;99.90
11152;DHT22;5630;49.342;10.802;2023-01-01T09:21:57;11.50;99.90
11152;DHT22;5630;49.342;10.802;2023-01-01T09:24:23;11.50;99.90
11152;DHT22;5630;49.342;10.802;2023-01-01T09:26:49;11.50;99.90
11152;DHT22;5630;49.342;10.802;2023-01-01T09:29:15;11.50;99.90
11152;DHT22;5630;49.342;10.802;2023-01-01T09:31:43;11.50;99.90
11152;DHT22;5630;49.342;10.802;2023-01-01T09:34:09;11.50;99.90
11152;DHT22;5630;49.342;10.802;2023-01-01T09:36:35;11.60;99.90
11152;DHT22;5630;49.342;10.802;2023-01-01T09:39:01;11.60;99.90
11152;DHT22;5630;49.342;10.802;2023-01-01T09:44:23;11.70;99.90
11152;DHT22;5630;49.342;10.802;2023-01-01T09:46:51;11.70;99.90
11152;DHT22;5630;49.342;10.802;2023-01-01T09:49:24;11.80;99.90
11152;DHT22;5630;49.342;10.802;2023-01-01T09:51:55;11.90;99.90
11152;DHT22;5630;49.342;10.802;2023-01-01T09:54:31;12.00;99.90
11152;DHT22;5630;49.342;10.802;2023-01-01T09:56:59;12.10;99.90
11152;DHT22;5630;49.342;10.802;2023-01-01T09:59:26;12.20;99.90
11152;DHT22;5630;49.342;10.802;2023-01-01T10:02:24;12.30;99.90
11152;DHT22;5630;49.342;10.802;2023-01-01T10:05:07;12.40;99.90
11152;DHT22;5630;49.342;10.802;2023-01-01T10:07:55;12.40;99.90
11152;DHT22;5630;49.342;10.802;2023-01-01T10:10:55;12.60;99.90
11152;DHT22;5630;49.342;10.802;2023-01-01T10:16:07;12.60;99.90
11152;DHT22;5630;49.342;10.802;2023-01-01T10:18:35;12.70;99.90
11152;DHT22;5630;49.342;10.802;2023-01-01T10:21:13;12.70;99.90
11152;DHT22;5630;49.342;10.802;2023-01-01T10:23:47;12.70;99.90
11152;DHT22;5630;49.342;10.802;2023-01-01T10:26:19;12.80;99.90
11152;DHT22;5630;49.342;10.802;2023-01-01T10:31:35;12.80;99.90
11152;DHT22;5630;49.342;10.802;2023-01-01T10:34:15;12.90;99.90
11152;DHT22;5630;49.342;10.802;2023-01-01T10:36:43;12.90;99.90
11152;DHT22;5630;49.342;10.802;2023-01-01T10:39:16;12.90;99.90
11152;DHT22;5630;49.342;10.802;2023-01-01T10:41:44;12.90;99.90
11152;DHT22;5630;49.342;10.802;2023-01-01T10:44:15;13.00;99.90
11152;DHT22;5630;49.342;10.802;2023-01-01T10:46:46;13.00;99.90
11152;DHT22;5630;49.342;10.802;2023-01-01T10:49:13;13.00;99.90
11152;DHT22;5630;49.342;10.802;2023-01-01T10:51:44;13.10;99.90
11152;DHT22;5630;49.342;10.802;2023-01-01T10:54:37;13.10;99.90
11152;DHT22;5630;49.342;10.802;2023-01-01T10:57:31;13.10;99.90
11152;DHT22;5630;49.342;10.802;2023-01-01T11:00:21;13.10;99.90
11152;DHT22;5630;49.342;10.802;2023-01-01T11:02:51;13.10;99.90
11152;DHT22;5630;49.342;10.802;2023-01-01T11:05:29;13.10;99.90
11152;DHT22;5630;49.342;10.802;2023-01-01T11:07:55;13.20;99.90
11152;DHT22;5630;49.342;10.802;2023-01-01T11:10:22;13.20;99.90
11152;DHT22;5630;49.342;10.802;2023-01-01T11:12:49;13.20;99.90
11152;DHT22;5630;49.342;10.802;2023-01-01T11:15:24;13.20;99.90
11152;DHT22;5630;49.342;10.802;2023-01-01T11:18:05;13.20;99.90
11152;DHT22;5630;49.342;10.802;2023-01-01T11:20:32;13.30;99.90
11152;DHT22;5630;49.342;10.802;2023-01-01T11:22:58;13.30;99.90
11152;DHT22;5630;49.342;10.802;2023-01-01T11:26:37;13.40;99.90
11152;DHT22;5630;49.342;10.802;2023-01-01T11:29:02;13.50;99.90
11152;DHT22;5630;49.342;10.802;2023-01-01T11:31:37;13.60;99.90
11152;DHT22;5630;49.342;10.802;2023-01-01T11:34:32;13.70;99.90
11152;DHT22;5630;49.342;10.802;2023-01-01T11:37:28;13.70;99.90
11152;DHT22;5630;49.342;10.802;2023-01-01T11:39:55;13.70;99.90
11152;DHT22;5630;49.342;10.802;2023-01-01T11:42:27;13.70;99.90
11152;DHT22;5630;49.342;10.802;2023-01-01T11:44:58;13.70;99.90
11152;DHT22;5630;49.342;10.802;2023-01-01T11:47:32;13.80;99.90
11152;DHT22;5630;49.342;10.802;2023-01-01T11:50:22;13.80;99.90
11152;DHT22;5630;49.342;10.802;2023-01-01T11:52:50;13.80;99.90
11152;DHT22;5630;49.342;10.802;2023-01-01T11:55:46;13.80;99.90
11152;DHT22;5630;49.342;10.802;2023-01-01T12:01:12;13.80;99.90
11152;DHT22;5630;49.342;10.802;2023-01-01T12:03:47;13.80;99.90
11152;DHT22;5630;49.342;10.802;2023-01-01T12:08:53;13.80;99.90
11152;DHT22;5630;49.342;10.802;2023-01-01T12:11:30;13.90;99.90
11152;DHT22;5630;49.342;10.802;2023-01-01T12:14:06;13.90;99.90
11152;DHT22;5630;49.342;10.802;2023-01-01T12:17:00;14.00;99.90
11152;DHT22;5630;49.342;10.802;2023-01-01T12:19:47;14.10;99.90
11152;DHT22;5630;49.342;10.802;2023-01-01T12:22:17;14.20;99.90
11152;DHT22;5630;49.342;10.802;2023-01-01T12:24:45;14.30;99.90
11152;DHT22;5630;49.342;10.802;2023-01-01T12:33:06;14.40;99.90
11152;DHT22;5630;49.342;10.802;2023-01-01T12:38:22;14.50;99.90
11152;DHT22;5630;49.342;10.802;2023-01-01T12:46:44;14.60;99.90
11152;DHT22;5630;49.342;10.802;2023-01-01T12:49:49;14.70;99.90
11152;DHT22;5630;49.342;10.802;2023-01-01T12:52:38;14.80;99.90
11152;DHT22;5630;49.342;10.802;2023-01-01T12:58:00;15.00;99.90
11152;DHT22;5630;49.342;10.802;2023-01-01T13:00:27;15.00;99.90
11152;DHT22;5630;49.342;10.802;2023-01-01T13:02:59;15.00;99.90
11152;DHT22;5630;49.342;10.802;2023-01-01T13:05:50;15.00;99.90
11152;DHT22;5630;49.342;10.802;2023-01-01T13:08:18;15.00;99.90
11152;DHT22;5630;49.342;10.802;2023-01-01T13:10:52;15.00;99.90
11152;DHT22;5630;49.342;10.802;2023-01-01T13:13:19;14.90;99.90
11152;DHT22;5630;49.342;10.802;2023-01-01T13:15:50;14.90;99.90
11152;DHT22;5630;49.342;10.802;2023-01-01T13:18:23;14.90;99.90
11152;DHT22;5630;49.342;10.802;2023-01-01T13:31:09;14.80;99.90
11152;DHT22;5630;49.342;10.802;2023-01-01T13:33:35;14.80;99.90
11152;DHT22;5630;49.342;10.802;2023-01-01T13:38:55;14.80;99.90
11152;DHT22;5630;49.342;10.802;2023-01-01T13:41:43;14.80;99.90
11152;DHT22;5630;49.342;10.802;2023-01-01T13:44:14;14.80;99.90
11152;DHT22;5630;49.342;10.802;2023-01-01T13:51:55;14.80;99.90
11152;DHT22;5630;49.342;10.802;2023-01-01T14:00:21;14.70;99.90
11152;DHT22;5630;49.342;10.802;2023-01-01T14:02:52;14.70;99.90
11152;DHT22;5630;49.342;10.802;2023-01-01T14:05:35;14.60;99.90
11152;DHT22;5630;49.342;10.802;2023-01-01T14:08:03;14.70;99.90
11152;DHT22;5630;49.342;10.802;2023-01-01T14:10:36;14.60;99.90
11152;DHT22;5630;49.342;10.802;2023-01-01T14:15:33;14.70;99.90
11152;DHT22;5630;49.342;10.802;2023-01-01T14:18:01;14.70;99.90
11152;DHT22;5630;49.342;10.802;2023-01-01T14:20:35;14.60;99.90
11152;DHT22;5630;49.342;10.802;2023-01-01T14:23:10;14.60;99.90
11152;DHT22;5630;49.342;10.802;2023-01-01T14:25:37;14.60;99.90
11152;DHT22;5630;49.342;10.802;2023-01-01T14:28:19;14.60;99.90
11152;DHT22;5630;49.342;10.802;2023-01-01T14:30:47;14.60;99.90
11152;DHT22;5630;49.342;10.802;2023-01-01T14:33:29;14.60;99.90
11152;DHT22;5630;49.342;10.802;2023-01-01T14:35:56;14.50;99.90
11152;DHT22;5630;49.342;10.802;2023-01-01T14:38:41;14.50;99.90
11152;DHT22;5630;49.342;10.802;2023-01-01T14:41:15;14.50;99.90
11152;DHT22;5630;49.342;10.802;2023-01-01T14:43:44;14.40;99.90
11152;DHT22;5630;49.342;10.802;2023-01-01T14:46:23;14.40;99.90
11152;DHT22;5630;49.342;10.802;2023-01-01T14:48:52;14.40;99.90
11152;DHT22;5630;49.342;10.802;2023-01-01T14:51:21;14.40;99.90
11152;DHT22;5630;49.342;10.802;2023-01-01T14:53:48;14.30;99.90
11152;DHT22;5630;49.342;10.802;2023-01-01T14:58:48;14.20;99.90
11152;DHT22;5630;49.342;10.802;2023-01-01T15:01:15;14.20;99.90
11152;DHT22;5630;49.342;10.802;2023-01-01T15:03:54;14.20;99.90
11152;DHT22;5630;49.342;10.802;2023-01-01T15:06:21;14.10;99.90
11152;DHT22;5630;49.342;10.802;2023-01-01T15:08:48;14.00;99.90
11152;DHT22;5630;49.342;10.802;2023-01-01T15:11:15;14.00;99.90
11152;DHT22;5630;49.342;10.802;2023-01-01T15:13:58;13.90;99.90
11152;DHT22;5630;49.342;10.802;2023-01-01T15:16:25;13.90;99.90
11152;DHT22;5630;49.342;10.802;2023-01-01T15:18:51;13.80;99.90
11152;DHT22;5630;49.342;10.802;2023-01-01T15:26:49;13.70;99.90
11152;DHT22;5630;49.342;10.802;2023-01-01T15:29:23;13.60;99.90
11152;DHT22;5630;49.342;10.802;2023-01-01T15:32:02;13.50;99.90
11152;DHT22;5630;49.342;10.802;2023-01-01T15:34:41;13.50;99.90
11152;DHT22;5630;49.342;10.802;2023-01-01T15:37:46;13.50;99.90
11152;DHT22;5630;49.342;10.802;2023-01-01T15:42:40;13.40;99.90
11152;DHT22;5630;49.342;10.802;2023-01-01T15:45:20;13.30;99.90
11152;DHT22;5630;49.342;10.802;2023-01-01T15:47:53;13.30;99.90
11152;DHT22;5630;49.342;10.802;2023-01-01T15:50:37;13.20;99.90
11152;DHT22;5630;49.342;10.802;2023-01-01T15:53:10;13.10;99.90
11152;DHT22;5630;49.342;10.802;2023-01-01T15:55:43;13.10;99.90
11152;DHT22;5630;49.342;10.802;2023-01-01T15:58:20;13.10;99.90
11152;DHT22;5630;49.342;10.802;2023-01-01T16:00:57;13.00;99.90
11152;DHT22;5630;49.342;10.802;2023-01-01T16:03:26;13.00;99.90
11152;DHT22;5630;49.342;10.802;2023-01-01T16:05:53;12.90;99.90
11152;DHT22;5630;49.342;10.802;2023-01-01T16:08:22;12.90;99.90
11152;DHT22;5630;49.342;10.802;2023-01-01T16:10:48;12.80;99.90
11152;DHT22;5630;49.342;10.802;2023-01-01T16:13:15;12.80;99.90
11152;DHT22;5630;49.342;10.802;2023-01-01T16:16:23;12.80;99.90
11152;DHT22;5630;49.342;10.802;2023-01-01T16:18:50;12.70;99.90
11152;DHT22;5630;49.342;10.802;2023-01-01T16:21:16;12.70;99.90
11152;DHT22;5630;49.342;10.802;2023-01-01T16:23:42;12.60;99.90
11152;DHT22;5630;49.342;10.802;2023-01-01T16:26:08;12.60;99.90
11152;DHT22;5630;49.342;10.802;2023-01-01T16:28:33;12.50;99.90
11152;DHT22;5630;49.342;10.802;2023-01-01T16:30:59;12.50;99.90
11152;DHT22;5630;49.342;10.802;2023-01-01T16:33:24;12.50;99.90
11152;DHT22;5630;49.342;10.802;2023-01-01T16:35:50;12.40;99.90
11152;DHT22;5630;49.342;10.802;2023-01-01T16:38:16;12.40;99.90
11152;DHT22;5630;49.342;10.802;2023-01-01T16:40:41;12.40;99.90
11152;DHT22;5630;49.342;10.802;2023-01-01T16:43:14;12.30;99.90
11152;DHT22;5630;49.342;10.802;2023-01-01T16:45:40;12.20;99.90
11152;DHT22;5630;49.342;10.802;2023-01-01T16:48:06;12.20;99.90
11152;DHT22;5630;49.342;10.802;2023-01-01T16:50:31;12.20;99.90
11152;DHT22;5630;49.342;10.802;2023-01-01T16:52:57;12.20;99.90
11152;DHT22;5630;49.342;10.802;2023-01-01T16:55:22;12.10;99.90
11152;DHT22;5630;49.342;10.802;2023-01-01T16:57:48;12.10;99.90
11152;DHT22;5630;49.342;10.802;2023-01-01T17:00:14;12.00;99.90
11152;DHT22;5630;49.342;10.802;2023-01-01T17:02:40;12.00;99.90
11152;DHT22;5630;49.342;10.802;2023-01-01T17:05:06;11.90;99.90
11152;DHT22;5630;49.342;10.802;2023-01-01T17:07:31;11.90;99.90
11152;DHT22;5630;49.342;10.802;2023-01-01T17:09:57;11.90;99.90
11152;DHT22;5630;49.342;10.802;2023-01-01T17:12:23;11.90;99.90
11152;DHT22;5630;49.342;10.802;2023-01-01T17:14:48;11.90;99.90
11152;DHT22;5630;49.342;10.802;2023-01-01T17:17:14;11.80;99.90
11152;DHT22;5630;49.342;10.802;2023-01-01T17:19:39;11.70;99.90
11152;DHT22;5630;49.342;10.802;2023-01-01T17:22:05;11.70;99.90
11152;DHT22;5630;49.342;10.802;2023-01-01T17:24:31;11.70;99.90
11152;DHT22;5630;49.342;10.802;2023-01-01T17:26:57;11.70;99.90
11152;DHT22;5630;49.342;10.802;2023-01-01T17:29:23;11.70;99.90
11152;DHT22;5630;49.342;10.802;2023-01-01T17:31:50;11.70;99.90